sensor_id;sensor_type;location;lat;lon;timestamp;P1;durP1;ratioP1;P2;durP2;ratioP2
53271;SDS011;39160;48.580;7.756;2022-08-18T00:01:17;5.00;;;4.00;;
53271;SDS011;39160;48.580;7.756;2022-08-18T00:06:08;6.10;;;3.05;;
53271;SDS011;39160;48.580;7.756;2022-08-18T00:10:58;5.95;;;3.28;;
53271;SDS011;39160;48.580;7.756;2022-08-18T00:15:49;4.25;;;3.47;;
53271;SDS011;39160;48.580;7.756;2022-08-18T00:20:40;3.75;;;2.78;;
53271;SDS011;39160;48.580;7.756;2022-08-18T00:25:31;12.45;;;3.45;;
53271;SDS011;39160;48.580;7.756;2022-08-18T00:30:22;5.53;;;3.50;;
53271;SDS011;39160;48.580;7.756;2022-08-18T00:35:14;6.65;;;4.65;;
53271;SDS011;39160;48.580;7.756;2022-08-18T00:40:11;6.50;;;3.33;;
53271;SDS011;39160;48.580;7.756;2022-08-18T00:45:05;3.72;;;3.05;;
53271;SDS011;39160;48.580;7.756;2022-08-18T00:49:57;6.75;;;3.50;;
53271;SDS011;39160;48.580;7.756;2022-08-18T00:54:47;4.50;;;2.97;;
53271;SDS011;39160;48.580;7.756;2022-08-18T01:05:21;4.78;;;3.20;;
53271;SDS011;39160;48.580;7.756;2022-08-18T01:09:57;5.47;;;3.22;;
53271;SDS011;39160;48.580;7.756;2022-08-18T01:14:48;4.20;;;3.80;;
53271;SDS011;39160;48.580;7.756;2022-08-18T01:19:39;5.32;;;3.78;;
53271;SDS011;39160;48.580;7.756;2022-08-18T01:24:49;4.00;;;3.38;;
53271;SDS011;39160;48.580;7.756;2022-08-18T01:30:10;4.90;;;3.25;;
53271;SDS011;39160;48.580;7.756;2022-08-18T01:35:04;3.97;;;3.20;;
53271;SDS011;39160;48.580;7.756;2022-08-18T01:39:57;4.63;;;3.20;;
53271;SDS011;39160;48.580;7.756;2022-08-18T01:44:48;5.63;;;3.92;;
53271;SDS011;39160;48.580;7.756;2022-08-18T01:49:40;5.65;;;3.50;;
53271;SDS011;39160;48.580;7.756;2022-08-18T01:54:32;4.95;;;3.72;;
53271;SDS011;39160;48.580;7.756;2022-08-18T01:59:22;3.70;;;2.85;;
53271;SDS011;39160;48.580;7.756;2022-08-18T02:04:13;4.38;;;3.67;;
53271;SDS011;39160;48.580;7.756;2022-08-18T02:09:05;4.22;;;3.33;;
53271;SDS011;39160;48.580;7.756;2022-08-18T02:13:56;3.75;;;3.17;;
53271;SDS011;39160;48.580;7.756;2022-08-18T02:18:47;5.60;;;3.50;;
53271;SDS011;39160;48.580;7.756;2022-08-18T02:23:38;5.13;;;3.17;;
53271;SDS011;39160;48.580;7.756;2022-08-18T02:28:30;4.55;;;3.75;;
53271;SDS011;39160;48.580;7.756;2022-08-18T02:33:21;4.82;;;3.40;;
53271;SDS011;39160;48.580;7.756;2022-08-18T02:38:11;5.05;;;3.60;;
53271;SDS011;39160;48.580;7.756;2022-08-18T02:43:05;5.22;;;3.47;;
53271;SDS011;39160;48.580;7.756;2022-08-18T02:47:58;5.38;;;3.53;;
53271;SDS011;39160;48.580;7.756;2022-08-18T02:52:48;7.10;;;3.30;;
53271;SDS011;39160;48.580;7.756;2022-08-18T02:57:44;5.35;;;3.42;;
53271;SDS011;39160;48.580;7.756;2022-08-18T03:02:35;4.70;;;3.58;;
53271;SDS011;39160;48.580;7.756;2022-08-18T03:07:27;4.88;;;3.65;;
53271;SDS011;39160;48.580;7.756;2022-08-18T03:12:18;4.40;;;3.35;;
53271;SDS011;39160;48.580;7.756;2022-08-18T03:17:08;4.72;;;3.55;;
53271;SDS011;39160;48.580;7.756;2022-08-18T03:21:59;4.53;;;3.10;;
53271;SDS011;39160;48.580;7.756;2022-08-18T03:26:51;6.28;;;4.07;;
53271;SDS011;39160;48.580;7.756;2022-08-18T03:31:42;4.47;;;3.08;;
53271;SDS011;39160;48.580;7.756;2022-08-18T03:36:34;4.40;;;3.60;;
53271;SDS011;39160;48.580;7.756;2022-08-18T03:41:26;6.57;;;3.65;;
53271;SDS011;39160;48.580;7.756;2022-08-18T03:46:19;5.28;;;3.67;;
53271;SDS011;39160;48.580;7.756;2022-08-18T03:51:27;6.32;;;4.05;;
53271;SDS011;39160;48.580;7.756;2022-08-18T03:56:24;5.63;;;3.72;;
53271;SDS011;39160;48.580;7.756;2022-08-18T04:01:18;4.75;;;3.40;;
53271;SDS011;39160;48.580;7.756;2022-08-18T04:06:22;5.32;;;4.30;;
53271;SDS011;39160;48.580;7.756;2022-08-18T04:11:19;6.55;;;4.40;;
53271;SDS011;39160;48.580;7.756;2022-08-18T04:16:10;4.70;;;3.92;;
53271;SDS011;39160;48.580;7.756;2022-08-18T04:21:02;8.27;;;3.90;;
53271;SDS011;39160;48.580;7.756;2022-08-18T04:25:56;5.95;;;4.40;;
53271;SDS011;39160;48.580;7.756;2022-08-18T04:30:48;7.90;;;3.58;;
53271;SDS011;39160;48.580;7.756;2022-08-18T04:35:38;3.95;;;3.55;;
53271;SDS011;39160;48.580;7.756;2022-08-18T04:40:29;5.38;;;3.83;;
53271;SDS011;39160;48.580;7.756;2022-08-18T04:45:22;7.80;;;4.10;;
53271;SDS011;39160;48.580;7.756;2022-08-18T04:50:13;6.18;;;3.80;;
53271;SDS011;39160;48.580;7.756;2022-08-18T04:55:04;5.80;;;3.70;;
53271;SDS011;39160;48.580;7.756;2022-08-18T04:59:55;5.78;;;4.45;;
53271;SDS011;39160;48.580;7.756;2022-08-18T05:04:47;4.60;;;3.60;;
53271;SDS011;39160;48.580;7.756;2022-08-18T05:09:38;5.53;;;3.65;;
53271;SDS011;39160;48.580;7.756;2022-08-18T05:14:31;5.82;;;3.58;;
53271;SDS011;39160;48.580;7.756;2022-08-18T05:19:22;9.80;;;4.57;;
53271;SDS011;39160;48.580;7.756;2022-08-18T05:24:15;9.35;;;3.78;;
53271;SDS011;39160;48.580;7.756;2022-08-18T05:29:06;6.20;;;3.55;;
53271;SDS011;39160;48.580;7.756;2022-08-18T05:33:57;5.30;;;3.95;;
53271;SDS011;39160;48.580;7.756;2022-08-18T05:43:47;5.15;;;3.85;;
53271;SDS011;39160;48.580;7.756;2022-08-18T05:48:38;4.82;;;3.70;;
53271;SDS011;39160;48.580;7.756;2022-08-18T05:53:29;5.20;;;3.67;;
53271;SDS011;39160;48.580;7.756;2022-08-18T05:58:39;5.82;;;4.38;;
53271;SDS011;39160;48.580;7.756;2022-08-18T06:03:39;6.18;;;4.05;;
53271;SDS011;39160;48.580;7.756;2022-08-18T06:08:46;4.97;;;3.28;;
53271;SDS011;39160;48.580;7.756;2022-08-18T06:13:56;7.22;;;4.57;;
53271;SDS011;39160;48.580;7.756;2022-08-18T06:28:57;5.82;;;3.40;;
53271;SDS011;39160;48.580;7.756;2022-08-18T06:34:16;4.15;;;3.38;;
53271;SDS011;39160;48.580;7.756;2022-08-18T06:44:42;5.55;;;4.35;;
53271;SDS011;39160;48.580;7.756;2022-08-18T06:49:41;5.72;;;3.65;;
53271;SDS011;39160;48.580;7.756;2022-08-18T06:54:40;6.05;;;4.35;;
53271;SDS011;39160;48.580;7.756;2022-08-18T06:59:33;4.93;;;3.90;;
53271;SDS011;39160;48.580;7.756;2022-08-18T07:04:33;5.53;;;4.30;;
53271;SDS011;39160;48.580;7.756;2022-08-18T07:09:31;6.65;;;4.65;;
53271;SDS011;39160;48.580;7.756;2022-08-18T07:14:23;5.65;;;4.10;;
53271;SDS011;39160;48.580;7.756;2022-08-18T07:19:15;5.70;;;4.05;;
53271;SDS011;39160;48.580;7.756;2022-08-18T07:24:18;4.55;;;3.28;;
53271;SDS011;39160;48.580;7.756;2022-08-18T07:29:35;6.25;;;3.45;;
53271;SDS011;39160;48.580;7.756;2022-08-18T07:34:51;4.57;;;3.42;;
53271;SDS011;39160;48.580;7.756;2022-08-18T07:39:54;8.52;;;3.92;;
53271;SDS011;39160;48.580;7.756;2022-08-18T07:49:43;3.83;;;3.42;;
53271;SDS011;39160;48.580;7.756;2022-08-18T07:55:00;5.63;;;3.53;;
53271;SDS011;39160;48.580;7.756;2022-08-18T08:00:09;4.28;;;3.17;;
53271;SDS011;39160;48.580;7.756;2022-08-18T08:05:13;5.55;;;4.28;;
53271;SDS011;39160;48.580;7.756;2022-08-18T08:10:31;7.10;;;3.35;;
53271;SDS011;39160;48.580;7.756;2022-08-18T08:15:39;6.70;;;4.03;;
53271;SDS011;39160;48.580;7.756;2022-08-18T08:20:42;5.32;;;3.60;;
53271;SDS011;39160;48.580;7.756;2022-08-18T08:25:47;7.40;;;3.90;;
53271;SDS011;39160;48.580;7.756;2022-08-18T08:31:04;8.27;;;3.45;;
53271;SDS011;39160;48.580;7.756;2022-08-18T08:36:02;4.80;;;3.35;;
53271;SDS011;39160;48.580;7.756;2022-08-18T08:41:02;6.72;;;3.88;;
53271;SDS011;39160;48.580;7.756;2022-08-18T08:46:03;7.57;;;4.97;;
53271;SDS011;39160;48.580;7.756;2022-08-18T08:56:07;6.10;;;4.40;;
53271;SDS011;39160;48.580;7.756;2022-08-18T09:01:03;7.43;;;4.22;;
53271;SDS011;39160;48.580;7.756;2022-08-18T09:11:27;6.75;;;4.20;;
53271;SDS011;39160;48.580;7.756;2022-08-18T09:27:34;8.10;;;4.50;;
53271;SDS011;39160;48.580;7.756;2022-08-18T09:33:09;6.43;;;3.97;;
53271;SDS011;39160;48.580;7.756;2022-08-18T09:43:15;7.10;;;5.05;;
53271;SDS011;39160;48.580;7.756;2022-08-18T09:48:26;7.70;;;5.28;;
53271;SDS011;39160;48.580;7.756;2022-08-18T10:14:40;8.93;;;5.78;;
53271;SDS011;39160;48.580;7.756;2022-08-18T10:25:03;7.70;;;5.05;;
53271;SDS011;39160;48.580;7.756;2022-08-18T10:29:58;7.68;;;5.22;;
53271;SDS011;39160;48.580;7.756;2022-08-18T10:34:50;6.65;;;4.75;;
53271;SDS011;39160;48.580;7.756;2022-08-18T10:39:46;8.55;;;6.25;;
53271;SDS011;39160;48.580;7.756;2022-08-18T10:44:41;12.10;;;8.63;;
53271;SDS011;39160;48.580;7.756;2022-08-18T10:49:34;10.25;;;7.15;;
53271;SDS011;39160;48.580;7.756;2022-08-18T11:04:37;13.82;;;8.07;;
53271;SDS011;39160;48.580;7.756;2022-08-18T11:09:32;13.88;;;9.63;;
53271;SDS011;39160;48.580;7.756;2022-08-18T11:19:39;11.25;;;7.55;;
53271;SDS011;39160;48.580;7.756;2022-08-18T11:24:32;11.20;;;6.77;;
53271;SDS011;39160;48.580;7.756;2022-08-18T11:29:31;11.30;;;6.88;;
53271;SDS011;39160;48.580;7.756;2022-08-18T11:34:44;7.78;;;6.25;;
53271;SDS011;39160;48.580;7.756;2022-08-18T11:39:46;10.20;;;7.53;;
53271;SDS011;39160;48.580;7.756;2022-08-18T11:44:38;12.30;;;8.43;;
53271;SDS011;39160;48.580;7.756;2022-08-18T11:49:30;9.18;;;7.25;;
53271;SDS011;39160;48.580;7.756;2022-08-18T11:54:22;8.93;;;7.68;;
53271;SDS011;39160;48.580;7.756;2022-08-18T11:59:29;11.05;;;8.40;;
53271;SDS011;39160;48.580;7.756;2022-08-18T12:04:22;11.10;;;8.27;;
53271;SDS011;39160;48.580;7.756;2022-08-18T12:14:16;12.60;;;9.23;;
53271;SDS011;39160;48.580;7.756;2022-08-18T12:19:10;9.88;;;7.88;;
53271;SDS011;39160;48.580;7.756;2022-08-18T12:24:03;10.82;;;8.45;;
53271;SDS011;39160;48.580;7.756;2022-08-18T12:28:56;15.90;;;9.77;;
53271;SDS011;39160;48.580;7.756;2022-08-18T12:33:47;13.13;;;9.35;;
53271;SDS011;39160;48.580;7.756;2022-08-18T12:38:37;13.85;;;9.93;;
53271;SDS011;39160;48.580;7.756;2022-08-18T12:43:32;14.52;;;10.00;;
53271;SDS011;39160;48.580;7.756;2022-08-18T12:48:29;12.00;;;9.18;;
53271;SDS011;39160;48.580;7.756;2022-08-18T12:53:21;14.23;;;10.00;;
53271;SDS011;39160;48.580;7.756;2022-08-18T12:58:13;12.00;;;10.20;;
53271;SDS011;39160;48.580;7.756;2022-08-18T13:03:04;9.82;;;8.82;;
53271;SDS011;39160;48.580;7.756;2022-08-18T13:07:56;11.50;;;9.70;;
53271;SDS011;39160;48.580;7.756;2022-08-18T13:12:49;10.13;;;8.65;;
53271;SDS011;39160;48.580;7.756;2022-08-18T13:17:39;8.13;;;7.30;;
53271;SDS011;39160;48.580;7.756;2022-08-18T13:22:30;9.70;;;8.15;;
53271;SDS011;39160;48.580;7.756;2022-08-18T13:27:21;9.15;;;7.93;;
53271;SDS011;39160;48.580;7.756;2022-08-18T13:32:11;10.45;;;8.27;;
53271;SDS011;39160;48.580;7.756;2022-08-18T13:37:03;9.00;;;7.47;;
53271;SDS011;39160;48.580;7.756;2022-08-18T13:41:54;8.38;;;7.22;;
53271;SDS011;39160;48.580;7.756;2022-08-18T13:46:45;8.43;;;7.25;;
53271;SDS011;39160;48.580;7.756;2022-08-18T13:51:37;9.48;;;6.95;;
53271;SDS011;39160;48.580;7.756;2022-08-18T13:56:29;7.65;;;6.88;;
53271;SDS011;39160;48.580;7.756;2022-08-18T14:01:20;8.55;;;6.78;;
53271;SDS011;39160;48.580;7.756;2022-08-18T14:06:10;8.73;;;6.80;;
53271;SDS011;39160;48.580;7.756;2022-08-18T14:11:01;7.43;;;6.72;;
53271;SDS011;39160;48.580;7.756;2022-08-18T14:15:53;7.13;;;6.03;;
53271;SDS011;39160;48.580;7.756;2022-08-18T14:25:54;6.80;;;6.10;;
53271;SDS011;39160;48.580;7.756;2022-08-18T14:31:03;6.57;;;5.90;;
53271;SDS011;39160;48.580;7.756;2022-08-18T14:35:55;6.97;;;6.03;;
53271;SDS011;39160;48.580;7.756;2022-08-18T14:40:46;6.13;;;5.53;;
53271;SDS011;39160;48.580;7.756;2022-08-18T14:45:37;7.90;;;5.45;;
53271;SDS011;39160;48.580;7.756;2022-08-18T14:50:28;6.78;;;5.95;;
53271;SDS011;39160;48.580;7.756;2022-08-18T14:55:19;5.88;;;5.13;;
53271;SDS011;39160;48.580;7.756;2022-08-18T15:00:12;8.05;;;6.50;;
53271;SDS011;39160;48.580;7.756;2022-08-18T15:05:06;6.35;;;5.72;;
53271;SDS011;39160;48.580;7.756;2022-08-18T15:09:57;5.85;;;4.95;;
53271;SDS011;39160;48.580;7.756;2022-08-18T15:14:48;6.68;;;5.80;;
53271;SDS011;39160;48.580;7.756;2022-08-18T15:19:38;9.18;;;7.05;;
53271;SDS011;39160;48.580;7.756;2022-08-18T15:24:29;7.68;;;6.03;;
53271;SDS011;39160;48.580;7.756;2022-08-18T15:29:38;6.00;;;5.18;;
53271;SDS011;39160;48.580;7.756;2022-08-18T15:34:29;8.30;;;6.22;;
53271;SDS011;39160;48.580;7.756;2022-08-18T15:39:20;7.15;;;6.03;;
53271;SDS011;39160;48.580;7.756;2022-08-18T15:44:11;8.57;;;6.10;;
53271;SDS011;39160;48.580;7.756;2022-08-18T15:49:03;7.70;;;5.78;;
53271;SDS011;39160;48.580;7.756;2022-08-18T15:53:56;7.50;;;5.43;;
53271;SDS011;39160;48.580;7.756;2022-08-18T15:58:47;6.40;;;5.70;;
53271;SDS011;39160;48.580;7.756;2022-08-18T16:03:38;7.57;;;5.25;;
53271;SDS011;39160;48.580;7.756;2022-08-18T16:08:30;5.85;;;5.25;;
53271;SDS011;39160;48.580;7.756;2022-08-18T16:13:21;7.25;;;5.90;;
53271;SDS011;39160;48.580;7.756;2022-08-18T16:18:14;5.78;;;5.25;;
53271;SDS011;39160;48.580;7.756;2022-08-18T16:23:06;6.75;;;5.32;;
53271;SDS011;39160;48.580;7.756;2022-08-18T16:27:57;6.13;;;5.50;;
53271;SDS011;39160;48.580;7.756;2022-08-18T16:32:48;8.30;;;6.70;;
53271;SDS011;39160;48.580;7.756;2022-08-18T16:37:39;9.95;;;8.15;;
53271;SDS011;39160;48.580;7.756;2022-08-18T16:42:30;7.80;;;6.78;;
53271;SDS011;39160;48.580;7.756;2022-08-18T16:47:24;10.25;;;7.70;;
53271;SDS011;39160;48.580;7.756;2022-08-18T16:52:16;7.70;;;6.57;;
53271;SDS011;39160;48.580;7.756;2022-08-18T16:57:08;12.13;;;8.32;;
53271;SDS011;39160;48.580;7.756;2022-08-18T17:01:59;10.90;;;7.15;;
53271;SDS011;39160;48.580;7.756;2022-08-18T17:07:08;11.90;;;8.15;;
53271;SDS011;39160;48.580;7.756;2022-08-18T17:11:59;10.38;;;7.25;;
53271;SDS011;39160;48.580;7.756;2022-08-18T17:16:50;9.88;;;7.07;;
53271;SDS011;39160;48.580;7.756;2022-08-18T17:21:45;8.70;;;6.68;;
53271;SDS011;39160;48.580;7.756;2022-08-18T17:31:33;9.25;;;7.00;;
53271;SDS011;39160;48.580;7.756;2022-08-18T17:36:39;9.52;;;7.20;;
53271;SDS011;39160;48.580;7.756;2022-08-18T17:41:41;8.88;;;7.03;;
53271;SDS011;39160;48.580;7.756;2022-08-18T17:46:50;9.02;;;6.85;;
53271;SDS011;39160;48.580;7.756;2022-08-18T17:51:44;8.80;;;6.35;;
53271;SDS011;39160;48.580;7.756;2022-08-18T17:56:39;8.07;;;6.57;;
53271;SDS011;39160;48.580;7.756;2022-08-18T18:01:34;8.52;;;6.30;;
53271;SDS011;39160;48.580;7.756;2022-08-18T18:11:30;7.75;;;6.65;;
53271;SDS011;39160;48.580;7.756;2022-08-18T18:16:25;8.65;;;6.03;;
53271;SDS011;39160;48.580;7.756;2022-08-18T18:21:19;9.93;;;7.63;;
53271;SDS011;39160;48.580;7.756;2022-08-18T18:31:22;8.90;;;6.20;;
53271;SDS011;39160;48.580;7.756;2022-08-18T18:36:15;10.15;;;7.75;;
53271;SDS011;39160;48.580;7.756;2022-08-18T18:41:25;9.05;;;6.18;;
53271;SDS011;39160;48.580;7.756;2022-08-18T18:51:24;9.32;;;6.53;;
53271;SDS011;39160;48.580;7.756;2022-08-18T18:56:24;10.52;;;6.13;;
53271;SDS011;39160;48.580;7.756;2022-08-18T19:01:30;8.48;;;6.80;;
53271;SDS011;39160;48.580;7.756;2022-08-18T19:06:32;12.27;;;8.40;;
53271;SDS011;39160;48.580;7.756;2022-08-18T19:21:41;10.80;;;7.00;;
53271;SDS011;39160;48.580;7.756;2022-08-18T19:26:39;7.78;;;6.13;;
53271;SDS011;39160;48.580;7.756;2022-08-18T19:31:38;8.20;;;7.05;;
53271;SDS011;39160;48.580;7.756;2022-08-18T19:41:50;6.32;;;5.53;;
53271;SDS011;39160;48.580;7.756;2022-08-18T19:47:09;9.02;;;6.75;;
53271;SDS011;39160;48.580;7.756;2022-08-18T19:52:07;8.15;;;7.03;;
53271;SDS011;39160;48.580;7.756;2022-08-18T20:07:46;8.20;;;6.40;;
53271;SDS011;39160;48.580;7.756;2022-08-18T20:12:53;7.90;;;6.78;;
53271;SDS011;39160;48.580;7.756;2022-08-18T20:22:47;10.05;;;7.40;;
53271;SDS011;39160;48.580;7.756;2022-08-18T20:27:44;10.65;;;7.35;;
53271;SDS011;39160;48.580;7.756;2022-08-18T20:32:39;10.38;;;7.10;;
53271;SDS011;39160;48.580;7.756;2022-08-18T20:37:30;12.45;;;7.18;;
53271;SDS011;39160;48.580;7.756;2022-08-18T20:57:25;10.98;;;7.18;;
53271;SDS011;39160;48.580;7.756;2022-08-18T21:02:34;7.53;;;6.47;;
53271;SDS011;39160;48.580;7.756;2022-08-18T21:07:33;8.60;;;7.05;;
53271;SDS011;39160;48.580;7.756;2022-08-18T21:12:28;8.55;;;6.70;;
53271;SDS011;39160;48.580;7.756;2022-08-18T21:17:22;12.45;;;6.07;;
53271;SDS011;39160;48.580;7.756;2022-08-18T21:22:16;8.57;;;6.97;;
53271;SDS011;39160;48.580;7.756;2022-08-18T21:27:42;8.07;;;6.47;;
53271;SDS011;39160;48.580;7.756;2022-08-18T21:32:34;9.43;;;6.70;;
53271;SDS011;39160;48.580;7.756;2022-08-18T21:37:29;9.73;;;6.82;;
53271;SDS011;39160;48.580;7.756;2022-08-18T21:42:38;9.05;;;7.07;;
53271;SDS011;39160;48.580;7.756;2022-08-18T21:47:32;10.70;;;7.78;;
53271;SDS011;39160;48.580;7.756;2022-08-18T21:52:24;9.38;;;6.45;;
53271;SDS011;39160;48.580;7.756;2022-08-18T21:57:21;8.95;;;7.43;;
53271;SDS011;39160;48.580;7.756;2022-08-18T22:02:19;8.63;;;6.78;;
53271;SDS011;39160;48.580;7.756;2022-08-18T22:07:11;10.13;;;6.95;;
53271;SDS011;39160;48.580;7.756;2022-08-18T22:17:51;8.82;;;6.68;;
53271;SDS011;39160;48.580;7.756;2022-08-18T22:22:58;11.10;;;7.38;;
53271;SDS011;39160;48.580;7.756;2022-08-18T22:28:27;10.43;;;7.93;;
53271;SDS011;39160;48.580;7.756;2022-08-18T22:33:17;9.85;;;7.47;;
53271;SDS011;39160;48.580;7.756;2022-08-18T22:38:08;9.15;;;7.72;;
53271;SDS011;39160;48.580;7.756;2022-08-18T22:42:59;10.90;;;7.95;;
53271;SDS011;39160;48.580;7.756;2022-08-18T22:47:49;12.57;;;8.23;;
53271;SDS011;39160;48.580;7.756;2022-08-18T22:52:44;11.68;;;8.57;;
53271;SDS011;39160;48.580;7.756;2022-08-18T22:57:37;10.55;;;7.85;;
53271;SDS011;39160;48.580;7.756;2022-08-18T23:02:29;12.38;;;8.32;;
53271;SDS011;39160;48.580;7.756;2022-08-18T23:07:20;12.50;;;8.20;;
53271;SDS011;39160;48.580;7.756;2022-08-18T23:12:11;13.27;;;8.30;;
53271;SDS011;39160;48.580;7.756;2022-08-18T23:17:02;13.07;;;8.95;;
53271;SDS011;39160;48.580;7.756;2022-08-18T23:21:54;12.70;;;8.85;;
53271;SDS011;39160;48.580;7.756;2022-08-18T23:26:45;12.90;;;8.63;;
53271;SDS011;39160;48.580;7.756;2022-08-18T23:31:36;13.55;;;7.60;;
53271;SDS011;39160;48.580;7.756;2022-08-18T23:36:28;12.25;;;9.07;;
53271;SDS011;39160;48.580;7.756;2022-08-18T23:41:20;16.58;;;8.75;;
53271;SDS011;39160;48.580;7.756;2022-08-18T23:46:15;13.82;;;8.65;;
53271;SDS011;39160;48.580;7.756;2022-08-18T23:51:11;11.10;;;7.75;;
53271;SDS011;39160;48.580;7.756;2022-08-18T23:56:02;11.25;;;8.70;;
